createdAt,value
2022-10-02T00:00:14.550Z,99757.22
2022-10-02T00:00:26.420Z,99758.16
2022-10-02T00:00:39.875Z,99757.94
2022-10-02T00:00:54.822Z,99753.69
2022-10-02T00:01:17.110Z,99755.53
2022-10-02T00:01:47.683Z,99762.44
2022-10-02T00:02:24.340Z,99752.25
2022-10-02T00:02:41.296Z,99754.09
2022-10-02T00:03:16.307Z,99751.53
2022-10-02T00:03:32.209Z,99744.47
2022-10-02T00:03:45.726Z,99747.03
2022-10-02T00:03:58.449Z,99759.47
2022-10-02T00:04:15.902Z,99752.25
2022-10-02T00:04:54.283Z,99745.34
2022-10-02T00:05:32.706Z,99751.28
2022-10-02T00:05:53.040Z,99752.25
2022-10-02T00:06:22.419Z,99740.03
2022-10-02T00:06:43.194Z,99747.03
2022-10-02T00:07:00.201Z,99745.06
2022-10-02T00:07:14.721Z,99748.53
2022-10-02T00:07:36.241Z,99752.13
2022-10-02T00:08:10.281Z,99753.19
2022-10-02T00:08:31.958Z,99751.16
2022-10-02T00:08:46.212Z,99754.38
2022-10-02T00:09:03.449Z,99752.53
2022-10-02T00:09:33.948Z,99752.53
2022-10-02T00:09:56.508Z,99758.94
2022-10-02T00:10:21.284Z,99760.88
2022-10-02T00:10:37.386Z,99759.31
2022-10-02T00:10:54.670Z,99760.31
2022-10-02T00:11:16.357Z,99759.31
2022-10-02T00:11:43.523Z,99761.03
2022-10-02T00:11:58.842Z,99756.59
2022-10-02T00:12:14.189Z,99756.38
2022-10-02T00:12:29.540Z,99760.88
2022-10-02T00:12:41.673Z,99766.25
2022-10-02T00:12:58.597Z,99765.53
2022-10-02T00:13:37.439Z,99760.38
2022-10-02T00:13:54.169Z,99761.94
2022-10-02T00:14:13.634Z,99757.22
2022-10-02T00:14:31.311Z,99761.53
2022-10-02T00:14:45.767Z,99769.56
2022-10-02T00:15:14.735Z,99767.53
2022-10-02T00:15:29.831Z,99776.44
2022-10-02T00:15:42.507Z,99763.22
2022-10-02T00:15:55.485Z,99770.34
2022-10-02T00:16:16.987Z,99769.28
2022-10-02T00:16:35.063Z,99762.31
2022-10-02T00:16:51.501Z,99771.22
2022-10-02T00:17:04.092Z,99770.34
2022-10-02T00:17:24.013Z,99767.38
2022-10-02T00:17:42.306Z,99768.22
2022-10-02T00:17:59.878Z,99770.78
2022-10-02T00:18:16.025Z,99770.44
2022-10-02T00:18:34.647Z,99771.22
2022-10-02T00:18:48.847Z,99763.38
2022-10-02T00:19:01.103Z,99763.66
2022-10-02T00:19:17.319Z,99765.28
2022-10-02T00:19:29.266Z,99756.38
2022-10-02T00:19:41.175Z,99761.53
2022-10-02T00:19:55.553Z,99769.22
2022-10-02T00:20:20.196Z,99767.59
2022-10-02T00:20:46.216Z,99764.16
2022-10-02T00:21:20.407Z,99770.34
2022-10-02T00:21:43.855Z,99765.72
2022-10-02T00:22:01.765Z,99771.78
2022-10-02T00:22:24.696Z,99769.88
2022-10-02T00:22:42.891Z,99763.88
2022-10-02T00:23:06.837Z,99767.38
2022-10-02T00:23:45.187Z,99766.59
2022-10-02T00:24:00.517Z,99769.09
2022-10-02T00:24:17.761Z,99764.66
2022-10-02T00:24:47.619Z,99770.66
2022-10-02T00:25:10.120Z,99766.13
2022-10-02T00:25:27.731Z,99767.97
2022-10-02T00:25:54.397Z,99769.09
2022-10-02T00:26:18.832Z,99778.50
2022-10-02T00:26:33.844Z,99770.66
2022-10-02T00:26:57.938Z,99763.72
2022-10-02T00:27:27.227Z,99767.69
2022-10-02T00:27:41.814Z,99774.00
2022-10-02T00:28:11.800Z,99766.03
2022-10-02T00:28:29.105Z,99773.13
2022-10-02T00:28:49.232Z,99764.09
2022-10-02T00:29:27.891Z,99759.56
2022-10-02T00:29:49.956Z,99768.09
2022-10-02T00:30:03.786Z,99766.75
2022-10-02T00:30:18.011Z,99768.38
2022-10-02T00:30:38.490Z,99767.81
2022-10-02T00:31:05.865Z,99765.75
2022-10-02T00:31:33.429Z,99775.16
2022-10-02T00:31:45.390Z,99775.03
2022-10-02T00:32:11.533Z,99773.88
2022-10-02T00:32:43.326Z,99774.03
2022-10-02T00:33:32.444Z,99773.22
2022-10-02T00:34:11.764Z,99775.72
2022-10-02T00:34:54.079Z,99776.50
2022-10-02T00:35:35.139Z,99773.88
2022-10-02T00:35:52.798Z,99779.41
2022-10-02T00:36:07.644Z,99772.34
2022-10-02T00:36:52.843Z,99779.56
2022-10-02T00:37:23.710Z,99772.63
2022-10-02T00:38:04.601Z,99780.50
2022-10-02T00:38:25.389Z,99795.38
2022-10-02T00:38:45.707Z,99797.91
2022-10-02T00:39:33.885Z,99793.25
2022-10-02T00:40:02.245Z,99783.22
2022-10-02T00:40:38.855Z,99784.00
2022-10-02T00:41:44.248Z,99776.94
2022-10-02T00:42:10.940Z,99778.06
2022-10-02T00:42:37.593Z,99786.13
2022-10-02T00:42:55.037Z,99778.22
2022-10-02T00:43:18.687Z,99778.28
2022-10-02T00:43:38.387Z,99781.66
2022-10-02T00:43:50.317Z,99789.72
2022-10-02T00:44:14.262Z,99784.34
2022-10-02T00:44:47.667Z,99786.47
2022-10-02T00:45:37.146Z,99788.91
2022-10-02T00:45:49.029Z,99791.56
2022-10-02T00:46:30.052Z,99789.56
2022-10-02T00:46:48.811Z,99781.06
2022-10-02T00:47:10.292Z,99783.84
2022-10-02T00:47:40.655Z,99788.28
2022-10-02T00:48:17.244Z,99786.28
2022-10-02T00:48:40.251Z,99785.19
2022-10-02T00:49:22.955Z,99788.06
2022-10-02T00:49:56.984Z,99782.56
2022-10-02T00:50:27.417Z,99780.09
2022-10-02T00:51:25.265Z,99793.25
2022-10-02T00:51:45.896Z,99781.66
2022-10-02T00:52:05.562Z,99779.84
2022-10-02T00:52:32.515Z,99780.78
2022-10-02T00:53:13.409Z,99794.06
2022-10-02T00:53:33.881Z,99790.84
2022-10-02T00:54:24.117Z,99782.06
2022-10-02T00:54:57.270Z,99786.63
2022-10-02T00:55:27.168Z,99802.47
2022-10-02T00:56:04.957Z,99791.50
2022-10-02T00:56:31.031Z,99791.50
2022-10-02T00:57:08.957Z,99802.78
2022-10-02T00:57:30.851Z,99801.09
2022-10-02T00:57:59.882Z,99796.66
2022-10-02T00:58:40.547Z,99790.44
2022-10-02T00:58:59.970Z,99791.22
2022-10-02T00:59:34.527Z,99800.13
2022-10-02T01:00:01.333Z,99807.19
2022-10-02T01:00:18.491Z,99799.34
2022-10-02T01:00:31.597Z,99797.56
2022-10-02T01:00:55.704Z,99801.81
2022-10-02T01:01:16.678Z,99808.16
2022-10-02T01:01:53.571Z,99796.56
2022-10-02T01:02:13.840Z,99798.56
2022-10-02T01:02:31.756Z,99799.34
2022-10-02T01:03:02.154Z,99803.38
2022-10-02T01:03:41.022Z,99791.22
2022-10-02T01:03:56.498Z,99790.56
2022-10-02T01:04:15.503Z,99798.50
2022-10-02T01:04:33.891Z,99796.84
2022-10-02T01:04:47.988Z,99791.22
2022-10-02T01:05:03.371Z,99797.34
2022-10-02T01:05:16.075Z,99790.38
2022-10-02T01:05:28.119Z,99792.06
2022-10-02T01:05:40.197Z,99795.53
2022-10-02T01:05:52.532Z,99798.06
2022-10-02T01:06:05.100Z,99784.16
2022-10-02T01:06:17.069Z,99791.84
2022-10-02T01:06:29.186Z,99791.75
2022-10-02T01:06:41.871Z,99791.78
2022-10-02T01:06:54.703Z,99791.09
2022-10-02T01:07:10.546Z,99796.25
2022-10-02T01:07:22.482Z,99798.75
2022-10-02T01:07:40.993Z,99791.84
2022-10-02T01:07:54.667Z,99798.69
2022-10-02T01:08:07.823Z,99789.91
2022-10-02T01:08:19.864Z,99793.28
2022-10-02T01:08:32.468Z,99799.47
2022-10-02T01:08:44.383Z,99797.63
2022-10-02T01:08:56.412Z,99798.59
2022-10-02T01:09:08.362Z,99791.63
2022-10-02T01:09:20.487Z,99789.00
2022-10-02T01:09:33.111Z,99789.00
2022-10-02T01:09:46.139Z,99795.13
2022-10-02T01:09:58.388Z,99790.84
2022-10-02T01:10:13.235Z,99794.06
2022-10-02T01:10:26.128Z,99788.06
2022-10-02T01:10:39.515Z,99785.47
2022-10-02T01:10:51.716Z,99783.63
2022-10-02T01:11:05.576Z,99790.56
2022-10-02T01:11:17.918Z,99786.19
2022-10-02T01:11:31.353Z,99783.63
2022-10-02T01:11:44.906Z,99782.84
2022-10-02T01:11:56.991Z,99776.72
2022-10-02T01:12:09.380Z,99782.72
2022-10-02T01:12:22.962Z,99782.72
2022-10-02T01:12:35.088Z,99781.78
2022-10-02T01:12:47.016Z,99782.56
2022-10-02T01:12:59.188Z,99780.78
2022-10-02T01:13:11.075Z,99784.28
2022-10-02T01:13:23.200Z,99783.22
2022-10-02T01:13:35.166Z,99778.84
2022-10-02T01:13:47.839Z,99778.69
2022-10-02T01:14:00.097Z,99781.22
2022-10-02T01:14:12.476Z,99781.38
2022-10-02T01:14:39.063Z,99780.47
2022-10-02T01:14:50.934Z,99776.00
2022-10-02T01:15:14.265Z,99777.72
2022-10-02T01:15:37.380Z,99779.28
2022-10-02T01:15:54.755Z,99780.34
2022-10-02T01:16:11.708Z,99774.44
2022-10-02T01:16:23.819Z,99779.56
2022-10-02T01:16:36.125Z,99782.22
2022-10-02T01:16:48.292Z,99776.16
2022-10-02T01:17:01.053Z,99777.84
2022-10-02T01:17:28.625Z,99783.22
2022-10-02T01:17:41.797Z,99786.63
2022-10-02T01:17:55.463Z,99782.16
2022-10-02T01:18:07.574Z,99780.47
2022-10-02T01:18:19.688Z,99784.91
2022-10-02T01:18:31.869Z,99779.75
2022-10-02T01:18:48.463Z,99782.28
2022-10-02T01:19:00.448Z,99781.22
2022-10-02T01:19:31.616Z,99787.13
2022-10-02T01:19:43.497Z,99788.97
2022-10-02T01:19:56.560Z,99787.25
2022-10-02T01:20:19.190Z,99791.84
2022-10-02T01:20:34.536Z,99791.06
2022-10-02T01:20:54.413Z,99790.13
2022-10-02T01:21:14.881Z,99793.53
2022-10-02T01:21:36.825Z,99785.84
2022-10-02T01:21:55.319Z,99793.69
2022-10-02T01:22:19.048Z,99781.50
2022-10-02T01:22:40.747Z,99784.91
2022-10-02T01:22:58.964Z,99793.69
2022-10-02T01:23:22.818Z,99789.28
2022-10-02T01:23:55.742Z,99795.25
2022-10-02T01:24:18.623Z,99794.25
2022-10-02T01:24:36.814Z,99790.13
2022-10-02T01:24:56.542Z,99790.97
2022-10-02T01:25:08.879Z,99796.91
2022-10-02T01:25:20.908Z,99795.25
2022-10-02T01:25:33.092Z,99796.78
2022-10-02T01:25:45.384Z,99794.97
2022-10-02T01:25:58.758Z,99796.03
2022-10-02T01:26:10.744Z,99791.56
2022-10-02T01:26:22.780Z,99794.13
2022-10-02T01:26:34.956Z,99793.25
2022-10-02T01:26:47.223Z,99795.03
2022-10-02T01:26:59.126Z,99795.25
2022-10-02T01:27:11.003Z,99793.53
2022-10-02T01:27:24.176Z,99790.00
2022-10-02T01:27:39.366Z,99786.47
2022-10-02T01:27:53.482Z,99789.84
2022-10-02T01:28:05.981Z,99798.47
2022-10-02T01:28:18.466Z,99788.91
2022-10-02T01:28:30.849Z,99787.91
2022-10-02T01:28:42.812Z,99789.72
2022-10-02T01:28:54.938Z,99793.91
2022-10-02T01:29:06.876Z,99786.13
2022-10-02T01:29:18.815Z,99785.22
2022-10-02T01:29:30.729Z,99783.38
2022-10-02T01:29:45.796Z,99786.91
2022-10-02T01:30:02.657Z,99789.44
2022-10-02T01:30:17.923Z,99784.22
2022-10-02T01:30:31.302Z,99775.59
2022-10-02T01:30:47.610Z,99791.41
2022-10-02T01:31:04.848Z,99780.00
2022-10-02T01:31:17.232Z,99781.88
2022-10-02T01:31:29.897Z,99779.28
2022-10-02T01:31:42.932Z,99779.22
2022-10-02T01:31:56.126Z,99781.66
2022-10-02T01:32:08.350Z,99786.06
2022-10-02T01:32:20.704Z,99779.91
2022-10-02T01:32:35.150Z,99773.00
2022-10-02T01:33:05.771Z,99779.00
2022-10-02T01:33:18.375Z,99780.69
2022-10-02T01:33:31.695Z,99783.22
2022-10-02T01:33:45.216Z,99782.38
2022-10-02T01:33:57.234Z,99780.69
2022-10-02T01:34:10.033Z,99778.78
2022-10-02T01:34:23.865Z,99780.56
2022-10-02T01:34:37.052Z,99777.88
2022-10-02T01:34:50.101Z,99778.72
2022-10-02T01:35:03.047Z,99769.94
2022-10-02T01:35:15.750Z,99777.00
2022-10-02T01:35:33.690Z,99769.94
2022-10-02T01:35:46.035Z,99778.56
2022-10-02T01:35:58.288Z,99775.16
2022-10-02T01:36:11.880Z,99778.72
2022-10-02T01:36:23.844Z,99778.72
2022-10-02T01:36:36.154Z,99778.72
2022-10-02T01:36:48.486Z,99780.38
2022-10-02T01:37:00.433Z,99782.22
2022-10-02T01:37:12.899Z,99786.50
2022-10-02T01:37:29.336Z,99780.25
2022-10-02T01:37:44.098Z,99787.94
2022-10-02T01:37:56.360Z,99787.03
2022-10-02T01:38:14.479Z,99781.81
2022-10-02T01:38:27.969Z,99782.66
2022-10-02T01:38:41.733Z,99779.34
2022-10-02T01:38:54.770Z,99786.34
2022-10-02T01:39:06.974Z,99786.22
2022-10-02T01:39:19.012Z,99783.59
2022-10-02T01:39:30.987Z,99785.22
2022-10-02T01:39:43.475Z,99785.22
2022-10-02T01:39:59.827Z,99783.38
2022-10-02T01:40:34.255Z,99787.75
2022-10-02T01:40:46.133Z,99784.28
2022-10-02T01:40:58.048Z,99778.13
2022-10-02T01:41:11.409Z,99790.56
2022-10-02T01:41:24.353Z,99787.19
2022-10-02T01:41:42.923Z,99787.94
2022-10-02T01:41:55.578Z,99782.66
2022-10-02T01:42:07.508Z,99785.28
2022-10-02T01:42:21.275Z,99791.44
2022-10-02T01:42:34.069Z,99787.03
2022-10-02T01:42:45.995Z,99791.34
2022-10-02T01:43:05.383Z,99795.78
2022-10-02T01:43:21.957Z,99789.78
2022-10-02T01:43:47.166Z,99783.59
2022-10-02T01:44:01.371Z,99794.13
2022-10-02T01:44:15.672Z,99787.88
2022-10-02T01:44:28.230Z,99788.88
2022-10-02T01:44:40.421Z,99788.94
2022-10-02T01:44:52.379Z,99786.50
2022-10-02T01:45:07.134Z,99787.28
2022-10-02T01:45:27.942Z,99783.72
2022-10-02T01:46:16.855Z,99786.41
2022-10-02T01:46:53.902Z,99780.09
2022-10-02T01:47:12.635Z,99780.81
2022-10-02T01:47:35.924Z,99777.16
2022-10-02T01:48:13.758Z,99782.97
2022-10-02T01:48:40.923Z,99781.97
2022-10-02T01:49:11.421Z,99778.38
2022-10-02T01:49:44.845Z,99788.78
2022-10-02T01:50:27.685Z,99791.31
2022-10-02T01:51:06.525Z,99792.09
2022-10-02T01:51:39.063Z,99791.03
2022-10-02T01:51:53.675Z,99786.56
2022-10-02T01:52:27.139Z,99787.47
2022-10-02T01:52:48.014Z,99790.94
2022-10-02T01:53:10.694Z,99790.88
2022-10-02T01:53:43.943Z,99789.19
2022-10-02T01:54:07.957Z,99789.03
2022-10-02T01:54:47.360Z,99788.72
2022-10-02T01:55:22.073Z,99793.66
2022-10-02T01:56:01.118Z,99789.31
2022-10-02T01:56:37.421Z,99796.38
2022-10-02T01:56:55.503Z,99791.81
2022-10-02T01:57:34.612Z,99795.22
2022-10-02T01:57:54.304Z,99796.94
2022-10-02T01:58:17.122Z,99795.22
2022-10-02T01:58:48.179Z,99791.53
2022-10-02T01:59:05.149Z,99794.38
2022-10-02T01:59:35.985Z,99791.81
2022-10-02T01:59:57.294Z,99801.31
2022-10-02T02:00:26.705Z,99795.22
2022-10-02T02:00:51.782Z,99799.53
2022-10-02T02:01:25.130Z,99794.31
2022-10-02T02:01:52.536Z,99800.25
2022-10-02T02:02:18.520Z,99799.47
2022-10-02T02:02:58.848Z,99794.91
2022-10-02T02:03:37.561Z,99799.13
2022-10-02T02:03:55.463Z,99797.28
2022-10-02T02:04:15.455Z,99794.66
2022-10-02T02:04:37.765Z,99799.03
2022-10-02T02:05:32.093Z,99799.59
2022-10-02T02:05:50.201Z,99799.41
2022-10-02T02:06:04.870Z,99802.88
2022-10-02T02:06:16.694Z,99795.72
2022-10-02T02:06:54.888Z,99801.81
2022-10-02T02:07:18.687Z,99798.28
2022-10-02T02:08:08.969Z,99801.91
2022-10-02T02:08:30.633Z,99799.13
2022-10-02T02:09:04.037Z,99804.53
2022-10-02T02:09:19.612Z,99800.34
2022-10-02T02:10:04.122Z,99788.81
2022-10-02T02:10:31.197Z,99786.78
2022-10-02T02:10:58.398Z,99791.91
2022-10-02T02:11:14.338Z,99795.13
2022-10-02T02:11:26.473Z,99795.13
2022-10-02T02:11:47.020Z,99786.66
2022-10-02T02:12:13.055Z,99798.03
2022-10-02T02:12:30.925Z,99797.44
2022-10-02T02:12:54.268Z,99786.78
2022-10-02T02:13:44.749Z,99791.50
2022-10-02T02:14:11.523Z,99794.88
2022-10-02T02:14:33.209Z,99792.19
2022-10-02T02:14:53.263Z,99795.78
2022-10-02T02:15:13.217Z,99794.88
2022-10-02T02:15:43.133Z,99795.72
2022-10-02T02:16:09.091Z,99800.84
2022-10-02T02:16:31.429Z,99797.13
2022-10-02T02:16:46.156Z,99802.38
2022-10-02T02:17:17.723Z,99805.91
2022-10-02T02:17:50.725Z,99800.97
2022-10-02T02:18:14.824Z,99803.16
2022-10-02T02:18:33.836Z,99800.66
2022-10-02T02:18:56.604Z,99799.91
2022-10-02T02:19:17.205Z,99801.59
2022-10-02T02:19:39.384Z,99804.34
2022-10-02T02:20:20.692Z,99796.44
2022-10-02T02:20:57.019Z,99800.13
2022-10-02T02:21:14.782Z,99795.19
2022-10-02T02:21:33.654Z,99795.91
2022-10-02T02:21:58.713Z,99801.28
2022-10-02T02:22:17.340Z,99796.09
2022-10-02T02:22:36.401Z,99799.41
2022-10-02T02:22:52.707Z,99806.38
2022-10-02T02:23:10.689Z,99801.81
2022-10-02T02:23:28.288Z,99800.97
2022-10-02T02:23:42.127Z,99805.19
2022-10-02T02:23:57.523Z,99807.75
2022-10-02T02:24:42.236Z,99796.44
2022-10-02T02:25:04.654Z,99796.13
2022-10-02T02:25:25.222Z,99803.44
2022-10-02T02:25:45.110Z,99805.06
2022-10-02T02:26:02.768Z,99795.28
2022-10-02T02:26:18.770Z,99806.22
2022-10-02T02:26:33.007Z,99804.81
2022-10-02T02:26:46.920Z,99802.06
2022-10-02T02:27:02.592Z,99796.66
2022-10-02T02:27:19.759Z,99800.91
2022-10-02T02:27:38.665Z,99796.84
2022-10-02T02:27:57.933Z,99802.50
2022-10-02T02:28:13.282Z,99798.50
2022-10-02T02:28:29.419Z,99802.97
2022-10-02T02:28:47.413Z,99799.88
2022-10-02T02:29:08.066Z,99804.59
2022-10-02T02:29:23.654Z,99803.59
2022-10-02T02:29:38.754Z,99797.44
2022-10-02T02:29:57.193Z,99794.72
2022-10-02T02:30:14.320Z,99802.81
2022-10-02T02:30:29.199Z,99801.91
2022-10-02T02:30:45.533Z,99805.13
2022-10-02T02:30:58.989Z,99798.34
2022-10-02T02:31:17.882Z,99799.13
2022-10-02T02:31:35.297Z,99795.59
2022-10-02T02:31:53.209Z,99793.75
2022-10-02T02:32:09.728Z,99797.13
2022-10-02T02:32:26.802Z,99790.06
2022-10-02T02:32:49.075Z,99793.56
2022-10-02T02:33:23.051Z,99799.06
2022-10-02T02:33:41.762Z,99793.88
2022-10-02T02:34:01.452Z,99793.19
2022-10-02T02:34:19.210Z,99789.28
2022-10-02T02:34:47.594Z,99797.66
2022-10-02T02:35:07.704Z,99796.25
2022-10-02T02:35:30.873Z,99803.91
2022-10-02T02:35:47.262Z,99797.53
2022-10-02T02:36:04.697Z,99798.38
2022-10-02T02:36:22.088Z,99799.53
2022-10-02T02:36:39.250Z,99806.66
2022-10-02T02:36:57.276Z,99805.84
2022-10-02T02:37:16.355Z,99809.47
2022-10-02T02:37:32.596Z,99806.50
2022-10-02T02:37:48.376Z,99807.03
2022-10-02T02:38:06.124Z,99795.91
2022-10-02T02:38:25.791Z,99810.72
2022-10-02T02:38:42.548Z,99807.56
2022-10-02T02:39:00.428Z,99813.75
2022-10-02T02:39:19.012Z,99809.19
2022-10-02T02:39:46.864Z,99800.97
2022-10-02T02:40:29.793Z,99811.75
2022-10-02T02:40:44.745Z,99807.13
2022-10-02T02:41:03.124Z,99805.19
2022-10-02T02:41:27.124Z,99806.91
2022-10-02T02:41:51.719Z,99804.53
2022-10-02T02:42:06.782Z,99802.81
2022-10-02T02:42:26.314Z,99807.22
2022-10-02T02:42:46.016Z,99802.97
2022-10-02T02:43:06.843Z,99804.66
2022-10-02T02:43:25.397Z,99806.44
2022-10-02T02:43:49.584Z,99805.66
2022-10-02T02:44:08.638Z,99809.13
2022-10-02T02:44:32.557Z,99806.50
2022-10-02T02:44:49.975Z,99805.50
2022-10-02T02:45:18.463Z,99806.88
2022-10-02T02:45:37.657Z,99810.34
2022-10-02T02:45:58.719Z,99806.97
2022-10-02T02:46:20.549Z,99810.19
2022-10-02T02:47:03.676Z,99808.22
2022-10-02T02:47:22.473Z,99797.81
2022-10-02T02:47:40.195Z,99806.50
2022-10-02T02:47:57.676Z,99800.50
2022-10-02T02:48:18.786Z,99805.66
2022-10-02T02:48:36.782Z,99806.38
2022-10-02T02:48:56.012Z,99802.81
2022-10-02T02:49:11.797Z,99799.28
2022-10-02T02:49:26.465Z,99804.28
2022-10-02T02:49:44.235Z,99806.19
2022-10-02T02:50:01.985Z,99800.13
2022-10-02T02:50:37.193Z,99807.91
2022-10-02T02:50:54.575Z,99807.13
2022-10-02T02:51:17.669Z,99796.75
2022-10-02T02:51:41.364Z,99808.81
2022-10-02T02:51:56.272Z,99802.69
2022-10-02T02:52:14.387Z,99801.75
2022-10-02T02:52:47.314Z,99803.75
2022-10-02T02:53:05.793Z,99795.59
2022-10-02T02:53:23.185Z,99798.81
2022-10-02T02:53:42.028Z,99803.28
2022-10-02T02:54:07.594Z,99798.97
2022-10-02T02:54:28.865Z,99798.97
2022-10-02T02:54:47.036Z,99799.41
2022-10-02T02:55:07.867Z,99797.56
2022-10-02T02:55:26.003Z,99803.03
2022-10-02T02:55:53.938Z,99801.13
2022-10-02T02:56:09.882Z,99794.88
2022-10-02T02:56:22.119Z,99792.66
2022-10-02T02:56:35.043Z,99785.88
2022-10-02T02:56:49.964Z,99787.41
2022-10-02T02:57:05.327Z,99786.19
2022-10-02T02:57:22.959Z,99796.56
2022-10-02T02:57:51.145Z,99798.50
2022-10-02T02:58:17.509Z,99795.59
2022-10-02T02:58:54.150Z,99794.50
2022-10-02T02:59:11.648Z,99789.88
2022-10-02T02:59:28.822Z,99793.34
2022-10-02T02:59:44.388Z,99785.88
2022-10-02T03:00:00.379Z,99788.97
2022-10-02T03:00:15.675Z,99781.72
2022-10-02T03:00:27.939Z,99787.38
2022-10-02T03:00:40.299Z,99790.19
2022-10-02T03:00:52.368Z,99792.03
2022-10-02T03:01:04.533Z,99784.94
2022-10-02T03:01:16.501Z,99791.13
2022-10-02T03:01:28.594Z,99784.19
2022-10-02T03:01:42.072Z,99791.19
2022-10-02T03:01:54.759Z,99786.25
2022-10-02T03:02:06.772Z,99782.81
2022-10-02T03:02:18.780Z,99786.03
2022-10-02T03:02:30.851Z,99783.88
2022-10-02T03:02:43.009Z,99786.56
2022-10-02T03:02:55.516Z,99789.13
2022-10-02T03:03:07.532Z,99794.19
2022-10-02T03:03:19.452Z,99774.78
2022-10-02T03:03:31.549Z,99792.34
2022-10-02T03:03:43.469Z,99792.34
2022-10-02T03:03:55.366Z,99790.66
2022-10-02T03:04:12.356Z,99787.28
2022-10-02T03:04:24.475Z,99789.25
2022-10-02T03:04:36.394Z,99792.81
2022-10-02T03:04:48.257Z,99790.66
2022-10-02T03:05:00.275Z,99796.81
2022-10-02T03:05:18.053Z,99792.28
2022-10-02T03:05:31.472Z,99793.88
2022-10-02T03:05:54.320Z,99793.75
2022-10-02T03:06:25.536Z,99782.56
2022-10-02T03:06:52.328Z,99795.72
2022-10-02T03:07:05.580Z,99799.13
2022-10-02T03:07:18.095Z,99798.81
2022-10-02T03:07:30.111Z,99797.13
2022-10-02T03:07:50.786Z,99796.44
2022-10-02T03:08:12.006Z,99800.19
2022-10-02T03:08:29.807Z,99796.56
2022-10-02T03:08:43.144Z,99802.75
2022-10-02T03:08:55.193Z,99801.66
2022-10-02T03:09:13.632Z,99803.81
2022-10-02T03:09:28.844Z,99803.59
2022-10-02T03:09:40.997Z,99799.13
2022-10-02T03:10:16.890Z,99800.84
2022-10-02T03:10:53.359Z,99802.75
2022-10-02T03:11:26.662Z,99798.50
2022-10-02T03:12:06.260Z,99804.81
2022-10-02T03:12:35.783Z,99806.44
2022-10-02T03:12:59.550Z,99801.81
2022-10-02T03:13:18.293Z,99803.59
2022-10-02T03:13:57.924Z,99804.34
2022-10-02T03:14:21.835Z,99802.81
2022-10-02T03:14:48.064Z,99806.28
2022-10-02T03:15:15.619Z,99805.06
2022-10-02T03:15:45.917Z,99793.19
2022-10-02T03:16:31.464Z,99788.50
2022-10-02T03:16:58.628Z,99801.44
2022-10-02T03:17:33.890Z,99797.13
2022-10-02T03:18:13.544Z,99796.38
2022-10-02T03:18:42.227Z,99795.59
2022-10-02T03:19:06.688Z,99795.59
2022-10-02T03:19:44.408Z,99796.00
2022-10-02T03:20:14.559Z,99797.44
2022-10-02T03:20:26.394Z,99792.88
2022-10-02T03:20:46.884Z,99793.88
2022-10-02T03:21:20.439Z,99792.03
2022-10-02T03:21:54.779Z,99789.22
2022-10-02T03:22:29.181Z,99794.34
2022-10-02T03:23:01.269Z,99786.78
2022-10-02T03:23:38.041Z,99794.81
2022-10-02T03:24:23.755Z,99797.09
2022-10-02T03:24:47.676Z,99798.28
2022-10-02T03:25:23.764Z,99793.88
2022-10-02T03:25:59.267Z,99797.44
2022-10-02T03:26:38.608Z,99793.59
2022-10-02T03:27:00.374Z,99797.81
2022-10-02T03:27:18.728Z,99795.25
2022-10-02T03:27:47.450Z,99796.81
2022-10-02T03:28:43.395Z,99796.25
2022-10-02T03:28:59.237Z,99789.88
2022-10-02T03:29:19.059Z,99790.75
2022-10-02T03:29:51.554Z,99793.88
2022-10-02T03:30:07.103Z,99793.34
2022-10-02T03:30:21.279Z,99791.25
2022-10-02T03:30:35.587Z,99795.44
2022-10-02T03:30:49.213Z,99790.34
2022-10-02T03:31:01.493Z,99793.19
2022-10-02T03:31:15.627Z,99794.81
2022-10-02T03:31:32.974Z,99790.13
2022-10-02T03:31:46.068Z,99790.06
2022-10-02T03:32:00.215Z,99794.28
2022-10-02T03:32:15.314Z,99793.44
2022-10-02T03:32:28.501Z,99796.84
2022-10-02T03:32:43.598Z,99801.75
2022-10-02T03:32:57.273Z,99802.50
2022-10-02T03:33:12.919Z,99794.06
2022-10-02T03:33:26.151Z,99792.97
2022-10-02T03:33:39.644Z,99797.28
2022-10-02T03:33:53.771Z,99796.66
2022-10-02T03:34:06.036Z,99795.78
2022-10-02T03:34:18.923Z,99793.34
2022-10-02T03:34:33.818Z,99794.13
2022-10-02T03:34:47.820Z,99800.13
2022-10-02T03:35:01.885Z,99803.44
2022-10-02T03:35:15.108Z,99791.91
2022-10-02T03:35:28.832Z,99796.97
2022-10-02T03:35:42.327Z,99790.75
2022-10-02T03:35:55.221Z,99796.66
2022-10-02T03:36:07.481Z,99800.53
2022-10-02T03:36:21.036Z,99792.66
2022-10-02T03:36:33.646Z,99800.53
2022-10-02T03:36:47.429Z,99802.06
2022-10-02T03:37:00.594Z,99803.59
2022-10-02T03:37:12.651Z,99790.75
2022-10-02T03:37:25.844Z,99804.06
2022-10-02T03:37:44.339Z,99794.28
2022-10-02T03:38:00.165Z,99807.44
2022-10-02T03:38:14.267Z,99795.28
2022-10-02T03:38:28.721Z,99798.69
2022-10-02T03:38:42.324Z,99791.72
2022-10-02T03:39:23.811Z,99792.59
2022-10-02T03:39:32.543Z,99796.84
2022-10-02T03:39:45.267Z,99788.03
2022-10-02T03:40:05.349Z,99799.38
2022-10-02T03:40:17.372Z,99796.66
2022-10-02T03:40:29.584Z,99799.28
2022-10-02T03:40:42.848Z,99791.28
2022-10-02T03:40:58.064Z,99799.75
2022-10-02T03:41:10.006Z,99794.50
2022-10-02T03:41:21.865Z,99793.59
2022-10-02T03:41:46.276Z,99796.22
2022-10-02T03:41:58.599Z,99797.91
2022-10-02T03:42:13.408Z,99799.69
2022-10-02T03:42:31.013Z,99805.75
2022-10-02T03:42:43.181Z,99801.59
2022-10-02T03:42:58.274Z,99804.22
2022-10-02T03:43:19.864Z,99804.84
2022-10-02T03:43:31.818Z,99797.91
2022-10-02T03:43:43.730Z,99796.03
2022-10-02T03:43:55.832Z,99800.38
2022-10-02T03:44:08.298Z,99804.66
2022-10-02T03:44:20.268Z,99800.50
2022-10-02T03:44:32.157Z,99804.97
2022-10-02T03:44:44.134Z,99799.44
2022-10-02T03:44:56.031Z,99798.75
2022-10-02T03:45:09.238Z,99794.69
2022-10-02T03:45:46.302Z,99798.19
2022-10-02T03:46:05.344Z,99795.81
2022-10-02T03:46:17.310Z,99801.06
2022-10-02T03:46:29.340Z,99802.66
2022-10-02T03:46:41.349Z,99797.44
2022-10-02T03:47:05.650Z,99803.38
2022-10-02T03:47:17.625Z,99798.97
2022-10-02T03:47:30.124Z,99805.16
2022-10-02T03:47:42.024Z,99803.59
2022-10-02T03:47:54.038Z,99803.44
2022-10-02T03:48:05.893Z,99800.06
2022-10-02T03:48:18.071Z,99802.06
2022-10-02T03:48:29.943Z,99801.91
2022-10-02T03:48:41.832Z,99801.91
2022-10-02T03:48:56.355Z,99801.06
2022-10-02T03:49:08.228Z,99799.97
2022-10-02T03:49:20.097Z,99801.91
2022-10-02T03:49:32.171Z,99803.59
2022-10-02T03:49:44.130Z,99807.13
2022-10-02T03:49:56.044Z,99811.91
2022-10-02T03:50:09.268Z,99801.38
2022-10-02T03:50:21.684Z,99801.91
2022-10-02T03:50:36.415Z,99800.06
2022-10-02T03:50:50.706Z,99798.19
2022-10-02T03:51:02.608Z,99795.38
2022-10-02T03:51:14.462Z,99797.28
2022-10-02T03:51:26.407Z,99798.06
2022-10-02T03:51:38.374Z,99799.22
2022-10-02T03:51:50.317Z,99809.16
2022-10-02T03:52:02.212Z,99804.22
2022-10-02T03:52:17.322Z,99806.59
2022-10-02T03:52:31.475Z,99803.16
2022-10-02T03:52:44.998Z,99805.59
2022-10-02T03:52:56.975Z,99803.34
2022-10-02T03:53:20.437Z,99798.09
2022-10-02T03:53:36.560Z,99805.19
2022-10-02T03:53:48.460Z,99801.81
2022-10-02T03:54:00.392Z,99807.75
2022-10-02T03:54:17.721Z,99804.22
2022-10-02T03:54:35.855Z,99802.50
2022-10-02T03:54:51.229Z,99801.75
2022-10-02T03:55:20.643Z,99797.28